sensor_id;sensor_type;location;lat;lon;timestamp;P1;durP1;ratioP1;P2;durP2;ratioP2
24739;SDS011;45234;48.148;17.128;2024-02-21T00:00:53;5.72;;;3.10;;
24739;SDS011;45234;48.148;17.128;2024-02-21T00:03:20;6.07;;;3.55;;
24739;SDS011;45234;48.148;17.128;2024-02-21T00:05:47;7.35;;;3.97;;
24739;SDS011;45234;48.148;17.128;2024-02-21T00:08:14;6.25;;;3.42;;
24739;SDS011;45234;48.148;17.128;2024-02-21T00:10:41;8.77;;;3.80;;
24739;SDS011;45234;48.148;17.128;2024-02-21T00:13:08;7.10;;;3.83;;
24739;SDS011;45234;48.148;17.128;2024-02-21T00:15:35;9.73;;;4.25;;
24739;SDS011;45234;48.148;17.128;2024-02-21T00:18:02;5.82;;;3.90;;
24739;SDS011;45234;48.148;17.128;2024-02-21T00:20:30;7.82;;;3.80;;
24739;SDS011;45234;48.148;17.128;2024-02-21T00:22:56;10.45;;;4.43;;
24739;SDS011;45234;48.148;17.128;2024-02-21T00:25:23;7.60;;;3.30;;
24739;SDS011;45234;48.148;17.128;2024-02-21T00:27:50;6.63;;;4.00;;
24739;SDS011;45234;48.148;17.128;2024-02-21T00:30:17;9.77;;;3.92;;
24739;SDS011;45234;48.148;17.128;2024-02-21T00:32:44;9.68;;;4.05;;
24739;SDS011;45234;48.148;17.128;2024-02-21T00:35:11;9.93;;;4.47;;
24739;SDS011;45234;48.148;17.128;2024-02-21T00:37:38;7.28;;;4.20;;
24739;SDS011;45234;48.148;17.128;2024-02-21T00:40:05;9.85;;;4.90;;
24739;SDS011;45234;48.148;17.128;2024-02-21T00:42:32;8.65;;;4.20;;
24739;SDS011;45234;48.148;17.128;2024-02-21T00:44:59;7.93;;;4.35;;
24739;SDS011;45234;48.148;17.128;2024-02-21T00:47:28;7.35;;;4.78;;
24739;SDS011;45234;48.148;17.128;2024-02-21T00:49:55;9.57;;;4.35;;
24739;SDS011;45234;48.148;17.128;2024-02-21T00:52:22;7.20;;;4.15;;
24739;SDS011;45234;48.148;17.128;2024-02-21T00:54:49;8.80;;;4.13;;
24739;SDS011;45234;48.148;17.128;2024-02-21T00:57:19;11.10;;;4.60;;
24739;SDS011;45234;48.148;17.128;2024-02-21T00:59:46;10.05;;;4.68;;
24739;SDS011;45234;48.148;17.128;2024-02-21T01:02:14;8.50;;;4.55;;
24739;SDS011;45234;48.148;17.128;2024-02-21T01:04:41;12.45;;;4.70;;
24739;SDS011;45234;48.148;17.128;2024-02-21T01:07:08;11.57;;;4.38;;
24739;SDS011;45234;48.148;17.128;2024-02-21T01:09:35;9.50;;;4.90;;
24739;SDS011;45234;48.148;17.128;2024-02-21T01:12:02;9.52;;;4.60;;
24739;SDS011;45234;48.148;17.128;2024-02-21T01:14:29;7.55;;;4.43;;
24739;SDS011;45234;48.148;17.128;2024-02-21T01:16:57;9.38;;;4.65;;
24739;SDS011;45234;48.148;17.128;2024-02-21T01:19:24;6.20;;;3.97;;
24739;SDS011;45234;48.148;17.128;2024-02-21T01:21:51;8.75;;;4.53;;
24739;SDS011;45234;48.148;17.128;2024-02-21T01:24:17;9.10;;;4.38;;
24739;SDS011;45234;48.148;17.128;2024-02-21T01:26:44;8.88;;;4.75;;
24739;SDS011;45234;48.148;17.128;2024-02-21T01:29:12;11.75;;;4.85;;
24739;SDS011;45234;48.148;17.128;2024-02-21T01:31:39;8.65;;;4.15;;
24739;SDS011;45234;48.148;17.128;2024-02-21T01:34:06;7.93;;;4.70;;
24739;SDS011;45234;48.148;17.128;2024-02-21T01:36:33;10.68;;;5.72;;
24739;SDS011;45234;48.148;17.128;2024-02-21T01:39:00;7.78;;;4.53;;
24739;SDS011;45234;48.148;17.128;2024-02-21T01:41:29;7.82;;;4.50;;
24739;SDS011;45234;48.148;17.128;2024-02-21T01:43:56;13.27;;;4.78;;
24739;SDS011;45234;48.148;17.128;2024-02-21T01:46:24;11.10;;;5.38;;
24739;SDS011;45234;48.148;17.128;2024-02-21T01:48:56;8.82;;;4.65;;
24739;SDS011;45234;48.148;17.128;2024-02-21T01:51:24;8.23;;;4.68;;
24739;SDS011;45234;48.148;17.128;2024-02-21T01:53:51;9.27;;;4.32;;
24739;SDS011;45234;48.148;17.128;2024-02-21T01:56:21;9.95;;;4.75;;
24739;SDS011;45234;48.148;17.128;2024-02-21T01:58:49;11.20;;;5.70;;
24739;SDS011;45234;48.148;17.128;2024-02-21T02:01:16;9.60;;;4.70;;
24739;SDS011;45234;48.148;17.128;2024-02-21T02:03:47;11.68;;;4.68;;
24739;SDS011;45234;48.148;17.128;2024-02-21T02:06:15;12.20;;;5.53;;
24739;SDS011;45234;48.148;17.128;2024-02-21T02:08:42;8.90;;;4.68;;
24739;SDS011;45234;48.148;17.128;2024-02-21T02:11:10;13.65;;;5.32;;
24739;SDS011;45234;48.148;17.128;2024-02-21T02:13:39;10.55;;;4.93;;
24739;SDS011;45234;48.148;17.128;2024-02-21T02:16:06;10.48;;;5.07;;
24739;SDS011;45234;48.148;17.128;2024-02-21T02:18:34;9.93;;;4.75;;
24739;SDS011;45234;48.148;17.128;2024-02-21T02:21:01;7.88;;;3.72;;
24739;SDS011;45234;48.148;17.128;2024-02-21T02:23:30;12.00;;;4.60;;
24739;SDS011;45234;48.148;17.128;2024-02-21T02:25:59;10.00;;;4.40;;
24739;SDS011;45234;48.148;17.128;2024-02-21T02:28:29;10.93;;;5.10;;
24739;SDS011;45234;48.148;17.128;2024-02-21T02:30:56;9.32;;;4.05;;
24739;SDS011;45234;48.148;17.128;2024-02-21T02:33:23;9.77;;;4.93;;
24739;SDS011;45234;48.148;17.128;2024-02-21T02:35:50;13.25;;;4.72;;
24739;SDS011;45234;48.148;17.128;2024-02-21T02:38:17;10.48;;;4.57;;
24739;SDS011;45234;48.148;17.128;2024-02-21T02:40:44;10.82;;;4.75;;
24739;SDS011;45234;48.148;17.128;2024-02-21T02:43:11;9.50;;;4.47;;
24739;SDS011;45234;48.148;17.128;2024-02-21T02:45:38;8.88;;;4.63;;
24739;SDS011;45234;48.148;17.128;2024-02-21T02:48:05;10.52;;;4.95;;
24739;SDS011;45234;48.148;17.128;2024-02-21T02:50:32;9.27;;;4.55;;
24739;SDS011;45234;48.148;17.128;2024-02-21T02:52:59;10.95;;;3.95;;
24739;SDS011;45234;48.148;17.128;2024-02-21T02:55:26;10.15;;;4.72;;
24739;SDS011;45234;48.148;17.128;2024-02-21T02:57:54;8.93;;;4.32;;
24739;SDS011;45234;48.148;17.128;2024-02-21T03:00:21;7.55;;;3.88;;
24739;SDS011;45234;48.148;17.128;2024-02-21T03:02:49;10.05;;;4.22;;
24739;SDS011;45234;48.148;17.128;2024-02-21T03:05:17;11.15;;;4.30;;
24739;SDS011;45234;48.148;17.128;2024-02-21T03:07:46;9.93;;;4.85;;
24739;SDS011;45234;48.148;17.128;2024-02-21T03:10:15;12.50;;;4.72;;
24739;SDS011;45234;48.148;17.128;2024-02-21T03:12:44;8.25;;;4.20;;
24739;SDS011;45234;48.148;17.128;2024-02-21T03:15:11;10.52;;;4.47;;
24739;SDS011;45234;48.148;17.128;2024-02-21T03:17:39;11.40;;;4.40;;
24739;SDS011;45234;48.148;17.128;2024-02-21T03:20:07;9.63;;;4.25;;
24739;SDS011;45234;48.148;17.128;2024-02-21T03:22:37;9.18;;;4.13;;
24739;SDS011;45234;48.148;17.128;2024-02-21T03:25:04;9.93;;;4.13;;
24739;SDS011;45234;48.148;17.128;2024-02-21T03:27:38;8.85;;;4.32;;
24739;SDS011;45234;48.148;17.128;2024-02-21T03:30:06;9.98;;;4.57;;
24739;SDS011;45234;48.148;17.128;2024-02-21T03:32:33;8.60;;;4.50;;
24739;SDS011;45234;48.148;17.128;2024-02-21T03:35:00;9.38;;;4.07;;
24739;SDS011;45234;48.148;17.128;2024-02-21T03:37:29;12.52;;;4.70;;
24739;SDS011;45234;48.148;17.128;2024-02-21T03:39:56;13.13;;;4.43;;
24739;SDS011;45234;48.148;17.128;2024-02-21T03:42:23;11.23;;;4.32;;
24739;SDS011;45234;48.148;17.128;2024-02-21T03:44:51;10.90;;;3.75;;
24739;SDS011;45234;48.148;17.128;2024-02-21T03:47:18;10.65;;;4.13;;
24739;SDS011;45234;48.148;17.128;2024-02-21T03:49:44;9.80;;;4.07;;
24739;SDS011;45234;48.148;17.128;2024-02-21T03:52:11;13.45;;;4.38;;
24739;SDS011;45234;48.148;17.128;2024-02-21T03:54:38;9.95;;;4.57;;
24739;SDS011;45234;48.148;17.128;2024-02-21T03:57:05;14.40;;;4.10;;
24739;SDS011;45234;48.148;17.128;2024-02-21T03:59:32;7.45;;;4.22;;
24739;SDS011;45234;48.148;17.128;2024-02-21T04:01:59;11.75;;;4.03;;
24739;SDS011;45234;48.148;17.128;2024-02-21T04:04:26;12.40;;;4.03;;
24739;SDS011;45234;48.148;17.128;2024-02-21T04:06:53;9.88;;;4.10;;
24739;SDS011;45234;48.148;17.128;2024-02-21T04:09:20;10.13;;;4.13;;
24739;SDS011;45234;48.148;17.128;2024-02-21T04:11:47;9.45;;;4.28;;
24739;SDS011;45234;48.148;17.128;2024-02-21T04:14:14;9.15;;;4.32;;
24739;SDS011;45234;48.148;17.128;2024-02-21T04:16:41;13.35;;;4.45;;
24739;SDS011;45234;48.148;17.128;2024-02-21T04:19:08;12.18;;;4.15;;
24739;SDS011;45234;48.148;17.128;2024-02-21T04:21:35;10.18;;;4.60;;
24739;SDS011;45234;48.148;17.128;2024-02-21T04:24:02;11.27;;;4.43;;
24739;SDS011;45234;48.148;17.128;2024-02-21T04:26:32;14.40;;;4.80;;
24739;SDS011;45234;48.148;17.128;2024-02-21T04:28:59;12.13;;;4.03;;
24739;SDS011;45234;48.148;17.128;2024-02-21T04:31:27;10.88;;;4.13;;
24739;SDS011;45234;48.148;17.128;2024-02-21T04:33:54;13.30;;;4.15;;
24739;SDS011;45234;48.148;17.128;2024-02-21T04:36:21;9.43;;;4.32;;
24739;SDS011;45234;48.148;17.128;2024-02-21T04:38:49;9.15;;;4.18;;
24739;SDS011;45234;48.148;17.128;2024-02-21T04:41:16;8.30;;;3.60;;
24739;SDS011;45234;48.148;17.128;2024-02-21T04:43:43;7.13;;;4.20;;
24739;SDS011;45234;48.148;17.128;2024-02-21T04:46:11;11.00;;;4.30;;
24739;SDS011;45234;48.148;17.128;2024-02-21T04:48:38;12.85;;;4.57;;
24739;SDS011;45234;48.148;17.128;2024-02-21T04:51:05;11.43;;;4.10;;
24739;SDS011;45234;48.148;17.128;2024-02-21T04:53:32;11.48;;;4.50;;
24739;SDS011;45234;48.148;17.128;2024-02-21T04:55:58;8.80;;;4.38;;
24739;SDS011;45234;48.148;17.128;2024-02-21T04:58:26;11.43;;;4.55;;
24739;SDS011;45234;48.148;17.128;2024-02-21T05:00:52;11.57;;;4.10;;
24739;SDS011;45234;48.148;17.128;2024-02-21T05:03:21;12.77;;;4.18;;
24739;SDS011;45234;48.148;17.128;2024-02-21T05:05:48;12.10;;;5.00;;
24739;SDS011;45234;48.148;17.128;2024-02-21T05:08:15;14.35;;;5.28;;
24739;SDS011;45234;48.148;17.128;2024-02-21T05:10:43;8.45;;;4.05;;
24739;SDS011;45234;48.148;17.128;2024-02-21T05:13:10;10.35;;;4.45;;
24739;SDS011;45234;48.148;17.128;2024-02-21T05:15:37;14.05;;;4.45;;
24739;SDS011;45234;48.148;17.128;2024-02-21T05:18:04;7.60;;;4.40;;
24739;SDS011;45234;48.148;17.128;2024-02-21T05:20:31;11.63;;;4.50;;
24739;SDS011;45234;48.148;17.128;2024-02-21T05:22:58;12.40;;;4.88;;
24739;SDS011;45234;48.148;17.128;2024-02-21T05:25:25;12.50;;;5.07;;
24739;SDS011;45234;48.148;17.128;2024-02-21T05:27:52;12.52;;;4.88;;
24739;SDS011;45234;48.148;17.128;2024-02-21T05:30:19;11.23;;;3.92;;
24739;SDS011;45234;48.148;17.128;2024-02-21T05:32:46;13.30;;;4.55;;
24739;SDS011;45234;48.148;17.128;2024-02-21T05:35:13;10.27;;;3.85;;
24739;SDS011;45234;48.148;17.128;2024-02-21T05:37:40;8.02;;;4.38;;
24739;SDS011;45234;48.148;17.128;2024-02-21T05:40:07;10.15;;;4.60;;
24739;SDS011;45234;48.148;17.128;2024-02-21T05:42:35;11.68;;;4.70;;
24739;SDS011;45234;48.148;17.128;2024-02-21T05:45:02;14.02;;;4.22;;
24739;SDS011;45234;48.148;17.128;2024-02-21T05:47:29;8.82;;;3.65;;
24739;SDS011;45234;48.148;17.128;2024-02-21T05:49:56;12.00;;;4.03;;
24739;SDS011;45234;48.148;17.128;2024-02-21T05:52:23;8.35;;;3.67;;
24739;SDS011;45234;48.148;17.128;2024-02-21T05:54:50;10.02;;;4.55;;
24739;SDS011;45234;48.148;17.128;2024-02-21T05:57:17;10.40;;;4.32;;
24739;SDS011;45234;48.148;17.128;2024-02-21T05:59:44;12.13;;;3.90;;
24739;SDS011;45234;48.148;17.128;2024-02-21T06:02:11;11.98;;;4.45;;
24739;SDS011;45234;48.148;17.128;2024-02-21T06:04:38;9.38;;;4.40;;
24739;SDS011;45234;48.148;17.128;2024-02-21T06:07:06;12.48;;;4.53;;
24739;SDS011;45234;48.148;17.128;2024-02-21T06:09:32;12.13;;;4.75;;
24739;SDS011;45234;48.148;17.128;2024-02-21T06:11:59;12.55;;;4.75;;
24739;SDS011;45234;48.148;17.128;2024-02-21T06:14:26;10.75;;;5.22;;
24739;SDS011;45234;48.148;17.128;2024-02-21T06:16:53;12.60;;;4.10;;
24739;SDS011;45234;48.148;17.128;2024-02-21T06:19:20;10.02;;;4.28;;
24739;SDS011;45234;48.148;17.128;2024-02-21T06:21:47;13.20;;;5.03;;
24739;SDS011;45234;48.148;17.128;2024-02-21T06:24:14;11.55;;;5.05;;
24739;SDS011;45234;48.148;17.128;2024-02-21T06:26:41;14.60;;;5.18;;
24739;SDS011;45234;48.148;17.128;2024-02-21T06:29:10;9.88;;;4.47;;
24739;SDS011;45234;48.148;17.128;2024-02-21T06:31:39;10.70;;;4.25;;
24739;SDS011;45234;48.148;17.128;2024-02-21T06:34:06;10.75;;;3.97;;
24739;SDS011;45234;48.148;17.128;2024-02-21T06:36:34;12.65;;;5.10;;
24739;SDS011;45234;48.148;17.128;2024-02-21T06:39:01;11.70;;;3.95;;
24739;SDS011;45234;48.148;17.128;2024-02-21T06:41:33;11.27;;;5.05;;
24739;SDS011;45234;48.148;17.128;2024-02-21T06:44:00;9.95;;;4.05;;
24739;SDS011;45234;48.148;17.128;2024-02-21T06:46:28;11.02;;;5.18;;
24739;SDS011;45234;48.148;17.128;2024-02-21T06:48:56;12.85;;;4.10;;
24739;SDS011;45234;48.148;17.128;2024-02-21T06:51:23;10.52;;;4.53;;
24739;SDS011;45234;48.148;17.128;2024-02-21T06:53:51;8.50;;;4.18;;
24739;SDS011;45234;48.148;17.128;2024-02-21T06:56:18;15.73;;;5.00;;
24739;SDS011;45234;48.148;17.128;2024-02-21T06:58:45;10.38;;;4.30;;
24739;SDS011;45234;48.148;17.128;2024-02-21T07:01:12;11.77;;;4.60;;
24739;SDS011;45234;48.148;17.128;2024-02-21T07:03:39;11.23;;;4.10;;
24739;SDS011;45234;48.148;17.128;2024-02-21T07:06:06;10.85;;;3.78;;
24739;SDS011;45234;48.148;17.128;2024-02-21T07:08:33;13.90;;;3.80;;
24739;SDS011;45234;48.148;17.128;2024-02-21T07:11:00;9.35;;;4.68;;
24739;SDS011;45234;48.148;17.128;2024-02-21T07:13:27;12.95;;;4.22;;
24739;SDS011;45234;48.148;17.128;2024-02-21T07:15:53;9.98;;;4.75;;
24739;SDS011;45234;48.148;17.128;2024-02-21T07:18:20;12.00;;;4.38;;
24739;SDS011;45234;48.148;17.128;2024-02-21T07:20:47;11.02;;;4.57;;
24739;SDS011;45234;48.148;17.128;2024-02-21T07:23:14;9.52;;;3.95;;
24739;SDS011;45234;48.148;17.128;2024-02-21T07:25:41;11.02;;;3.95;;
24739;SDS011;45234;48.148;17.128;2024-02-21T07:28:08;11.93;;;4.32;;
24739;SDS011;45234;48.148;17.128;2024-02-21T07:30:35;9.55;;;4.03;;
24739;SDS011;45234;48.148;17.128;2024-02-21T07:33:02;10.10;;;4.15;;
24739;SDS011;45234;48.148;17.128;2024-02-21T07:35:29;7.22;;;3.83;;
24739;SDS011;45234;48.148;17.128;2024-02-21T07:37:56;8.90;;;3.72;;
24739;SDS011;45234;48.148;17.128;2024-02-21T07:40:23;10.82;;;3.83;;
24739;SDS011;45234;48.148;17.128;2024-02-21T07:42:50;9.77;;;3.97;;
24739;SDS011;45234;48.148;17.128;2024-02-21T07:45:17;8.65;;;4.25;;
24739;SDS011;45234;48.148;17.128;2024-02-21T07:47:47;9.05;;;3.67;;
24739;SDS011;45234;48.148;17.128;2024-02-21T07:50:15;15.88;;;3.90;;
24739;SDS011;45234;48.148;17.128;2024-02-21T07:52:42;11.32;;;4.07;;
24739;SDS011;45234;48.148;17.128;2024-02-21T07:55:09;7.30;;;3.25;;
24739;SDS011;45234;48.148;17.128;2024-02-21T07:57:36;8.05;;;3.45;;
24739;SDS011;45234;48.148;17.128;2024-02-21T08:00:03;7.35;;;3.28;;
24739;SDS011;45234;48.148;17.128;2024-02-21T08:02:37;13.27;;;3.88;;
24739;SDS011;45234;48.148;17.128;2024-02-21T08:05:04;8.27;;;3.42;;
24739;SDS011;45234;48.148;17.128;2024-02-21T08:07:31;8.80;;;3.75;;
24739;SDS011;45234;48.148;17.128;2024-02-21T08:09:58;8.82;;;3.45;;
24739;SDS011;45234;48.148;17.128;2024-02-21T08:12:26;11.02;;;3.33;;
24739;SDS011;45234;48.148;17.128;2024-02-21T08:14:53;8.73;;;3.17;;
24739;SDS011;45234;48.148;17.128;2024-02-21T08:17:20;7.85;;;3.22;;
24739;SDS011;45234;48.148;17.128;2024-02-21T08:19:47;6.80;;;3.35;;
24739;SDS011;45234;48.148;17.128;2024-02-21T08:22:15;10.43;;;3.40;;
24739;SDS011;45234;48.148;17.128;2024-02-21T08:24:42;5.20;;;2.63;;
24739;SDS011;45234;48.148;17.128;2024-02-21T08:27:09;9.75;;;3.28;;
24739;SDS011;45234;48.148;17.128;2024-02-21T08:29:36;7.15;;;3.17;;
24739;SDS011;45234;48.148;17.128;2024-02-21T08:32:03;10.63;;;3.22;;
24739;SDS011;45234;48.148;17.128;2024-02-21T08:34:30;8.18;;;3.25;;
24739;SDS011;45234;48.148;17.128;2024-02-21T08:37:00;13.07;;;3.00;;
24739;SDS011;45234;48.148;17.128;2024-02-21T08:39:27;5.95;;;2.72;;
24739;SDS011;45234;48.148;17.128;2024-02-21T08:41:56;12.48;;;3.42;;
24739;SDS011;45234;48.148;17.128;2024-02-21T08:44:23;9.23;;;3.33;;
24739;SDS011;45234;48.148;17.128;2024-02-21T08:46:53;9.52;;;3.40;;
24739;SDS011;45234;48.148;17.128;2024-02-21T08:49:21;11.00;;;4.97;;
24739;SDS011;45234;48.148;17.128;2024-02-21T08:51:49;5.93;;;2.95;;
24739;SDS011;45234;48.148;17.128;2024-02-21T08:54:15;6.70;;;2.92;;
24739;SDS011;45234;48.148;17.128;2024-02-21T08:56:43;7.93;;;3.25;;
24739;SDS011;45234;48.148;17.128;2024-02-21T08:59:09;7.10;;;3.08;;
24739;SDS011;45234;48.148;17.128;2024-02-21T09:01:37;8.95;;;3.30;;
24739;SDS011;45234;48.148;17.128;2024-02-21T09:04:04;7.25;;;3.10;;
24739;SDS011;45234;48.148;17.128;2024-02-21T09:06:31;13.32;;;3.35;;
24739;SDS011;45234;48.148;17.128;2024-02-21T09:08:59;8.85;;;3.13;;
24739;SDS011;45234;48.148;17.128;2024-02-21T09:11:27;11.32;;;2.90;;
24739;SDS011;45234;48.148;17.128;2024-02-21T09:13:54;7.30;;;2.90;;
24739;SDS011;45234;48.148;17.128;2024-02-21T09:16:21;6.75;;;3.20;;
24739;SDS011;45234;48.148;17.128;2024-02-21T09:18:49;8.07;;;3.25;;
24739;SDS011;45234;48.148;17.128;2024-02-21T09:21:16;9.00;;;3.28;;
24739;SDS011;45234;48.148;17.128;2024-02-21T09:23:44;6.47;;;3.10;;
24739;SDS011;45234;48.148;17.128;2024-02-21T09:26:11;7.53;;;2.55;;
24739;SDS011;45234;48.148;17.128;2024-02-21T09:28:42;6.95;;;2.90;;
24739;SDS011;45234;48.148;17.128;2024-02-21T09:31:10;6.65;;;2.85;;
24739;SDS011;45234;48.148;17.128;2024-02-21T09:33:37;6.28;;;2.45;;
24739;SDS011;45234;48.148;17.128;2024-02-21T09:36:05;4.72;;;2.55;;
24739;SDS011;45234;48.148;17.128;2024-02-21T09:38:32;4.45;;;2.40;;
24739;SDS011;45234;48.148;17.128;2024-02-21T09:41:15;7.60;;;2.50;;
24739;SDS011;45234;48.148;17.128;2024-02-21T09:43:51;5.63;;;2.60;;
24739;SDS011;45234;48.148;17.128;2024-02-21T09:46:40;5.65;;;2.55;;
24739;SDS011;45234;48.148;17.128;2024-02-21T09:52:00;8.00;;;2.90;;
24739;SDS011;45234;48.148;17.128;2024-02-21T09:54:34;6.82;;;2.60;;
24739;SDS011;45234;48.148;17.128;2024-02-21T09:57:05;9.05;;;2.58;;
24739;SDS011;45234;48.148;17.128;2024-02-21T09:59:33;4.57;;;2.63;;
24739;SDS011;45234;48.148;17.128;2024-02-21T10:02:00;8.40;;;2.78;;
24739;SDS011;45234;48.148;17.128;2024-02-21T10:04:28;6.95;;;2.38;;
24739;SDS011;45234;48.148;17.128;2024-02-21T10:06:56;7.13;;;2.45;;
24739;SDS011;45234;48.148;17.128;2024-02-21T10:09:24;6.68;;;2.35;;
24739;SDS011;45234;48.148;17.128;2024-02-21T10:11:56;10.05;;;4.32;;
24739;SDS011;45234;48.148;17.128;2024-02-21T10:14:35;5.20;;;2.60;;
24739;SDS011;45234;48.148;17.128;2024-02-21T10:17:02;4.68;;;2.40;;
24739;SDS011;45234;48.148;17.128;2024-02-21T10:19:35;6.25;;;2.75;;
24739;SDS011;45234;48.148;17.128;2024-02-21T10:22:03;7.72;;;2.85;;
24739;SDS011;45234;48.148;17.128;2024-02-21T10:24:34;11.50;;;5.43;;
24739;SDS011;45234;48.148;17.128;2024-02-21T10:27:04;6.15;;;2.63;;
24739;SDS011;45234;48.148;17.128;2024-02-21T10:29:39;9.13;;;2.60;;
24739;SDS011;45234;48.148;17.128;2024-02-21T10:32:14;8.13;;;2.70;;
24739;SDS011;45234;48.148;17.128;2024-02-21T10:34:41;7.65;;;2.53;;
24739;SDS011;45234;48.148;17.128;2024-02-21T10:37:10;4.70;;;1.67;;
24739;SDS011;45234;48.148;17.128;2024-02-21T10:39:38;8.18;;;2.63;;
24739;SDS011;45234;48.148;17.128;2024-02-21T10:42:07;5.03;;;2.22;;
24739;SDS011;45234;48.148;17.128;2024-02-21T10:44:39;10.10;;;3.03;;
24739;SDS011;45234;48.148;17.128;2024-02-21T10:47:08;6.60;;;2.13;;
24739;SDS011;45234;48.148;17.128;2024-02-21T10:49:38;4.75;;;1.90;;
24739;SDS011;45234;48.148;17.128;2024-02-21T10:55:03;6.78;;;2.35;;
24739;SDS011;45234;48.148;17.128;2024-02-21T10:57:35;8.73;;;2.28;;
24739;SDS011;45234;48.148;17.128;2024-02-21T11:00:04;4.22;;;2.00;;
24739;SDS011;45234;48.148;17.128;2024-02-21T11:02:34;10.55;;;2.80;;
24739;SDS011;45234;48.148;17.128;2024-02-21T11:05:02;8.98;;;2.30;;
24739;SDS011;45234;48.148;17.128;2024-02-21T11:07:30;9.07;;;2.63;;
24739;SDS011;45234;48.148;17.128;2024-02-21T11:10:01;6.90;;;2.40;;
24739;SDS011;45234;48.148;17.128;2024-02-21T11:12:32;8.05;;;2.30;;
24739;SDS011;45234;48.148;17.128;2024-02-21T11:15:05;8.68;;;2.55;;
24739;SDS011;45234;48.148;17.128;2024-02-21T11:17:32;5.57;;;2.10;;
24739;SDS011;45234;48.148;17.128;2024-02-21T11:20:14;8.15;;;2.78;;
24739;SDS011;45234;48.148;17.128;2024-02-21T11:22:42;6.55;;;2.78;;
24739;SDS011;45234;48.148;17.128;2024-02-21T11:25:10;6.30;;;2.05;;
24739;SDS011;45234;48.148;17.128;2024-02-21T11:27:45;10.95;;;2.95;;
24739;SDS011;45234;48.148;17.128;2024-02-21T11:30:12;8.88;;;2.65;;
24739;SDS011;45234;48.148;17.128;2024-02-21T11:32:40;7.85;;;2.40;;
24739;SDS011;45234;48.148;17.128;2024-02-21T11:35:07;7.45;;;2.70;;
24739;SDS011;45234;48.148;17.128;2024-02-21T11:37:45;6.95;;;2.50;;
24739;SDS011;45234;48.148;17.128;2024-02-21T11:40:12;6.63;;;2.78;;
24739;SDS011;45234;48.148;17.128;2024-02-21T11:42:39;9.07;;;2.63;;
24739;SDS011;45234;48.148;17.128;2024-02-21T11:45:06;7.82;;;2.92;;
24739;SDS011;45234;48.148;17.128;2024-02-21T11:47:36;4.00;;;2.40;;
24739;SDS011;45234;48.148;17.128;2024-02-21T11:50:11;5.45;;;2.30;;
24739;SDS011;45234;48.148;17.128;2024-02-21T11:52:41;7.10;;;2.92;;
24739;SDS011;45234;48.148;17.128;2024-02-21T11:55:08;7.40;;;2.63;;
24739;SDS011;45234;48.148;17.128;2024-02-21T11:57:37;9.23;;;3.63;;
24739;SDS011;45234;48.148;17.128;2024-02-21T12:02:42;11.07;;;2.65;;
24739;SDS011;45234;48.148;17.128;2024-02-21T12:05:12;7.50;;;2.92;;
24739;SDS011;45234;48.148;17.128;2024-02-21T12:07:40;5.22;;;2.47;;
24739;SDS011;45234;48.148;17.128;2024-02-21T12:10:10;11.40;;;2.92;;
24739;SDS011;45234;48.148;17.128;2024-02-21T12:12:38;8.98;;;2.47;;
24739;SDS011;45234;48.148;17.128;2024-02-21T12:15:06;5.53;;;2.53;;
24739;SDS011;45234;48.148;17.128;2024-02-21T12:17:34;6.07;;;2.88;;
24739;SDS011;45234;48.148;17.128;2024-02-21T12:20:04;9.68;;;2.38;;
24739;SDS011;45234;48.148;17.128;2024-02-21T12:22:39;4.75;;;2.28;;
24739;SDS011;45234;48.148;17.128;2024-02-21T12:25:17;5.65;;;2.05;;
24739;SDS011;45234;48.148;17.128;2024-02-21T12:27:48;10.45;;;2.55;;
24739;SDS011;45234;48.148;17.128;2024-02-21T12:30:15;6.55;;;2.40;;
24739;SDS011;45234;48.148;17.128;2024-02-21T12:32:43;8.27;;;2.78;;
24739;SDS011;45234;48.148;17.128;2024-02-21T12:35:10;6.47;;;2.72;;
24739;SDS011;45234;48.148;17.128;2024-02-21T12:37:37;6.88;;;2.80;;
24739;SDS011;45234;48.148;17.128;2024-02-21T12:40:06;8.10;;;2.42;;
24739;SDS011;45234;48.148;17.128;2024-02-21T12:42:34;6.75;;;2.92;;
24739;SDS011;45234;48.148;17.128;2024-02-21T12:45:02;8.27;;;2.90;;
24739;SDS011;45234;48.148;17.128;2024-02-21T12:47:29;8.35;;;2.85;;
24739;SDS011;45234;48.148;17.128;2024-02-21T12:49:56;9.35;;;2.60;;
24739;SDS011;45234;48.148;17.128;2024-02-21T12:52:24;7.97;;;2.30;;
24739;SDS011;45234;48.148;17.128;2024-02-21T12:54:51;5.32;;;2.60;;
24739;SDS011;45234;48.148;17.128;2024-02-21T12:57:18;5.78;;;2.42;;
24739;SDS011;45234;48.148;17.128;2024-02-21T12:59:45;13.75;;;3.03;;
24739;SDS011;45234;48.148;17.128;2024-02-21T13:02:12;11.68;;;2.78;;
24739;SDS011;45234;48.148;17.128;2024-02-21T13:04:39;6.10;;;2.08;;
24739;SDS011;45234;48.148;17.128;2024-02-21T13:07:07;7.82;;;2.60;;
24739;SDS011;45234;48.148;17.128;2024-02-21T13:09:34;6.15;;;2.17;;
24739;SDS011;45234;48.148;17.128;2024-02-21T13:12:01;8.52;;;2.33;;
24739;SDS011;45234;48.148;17.128;2024-02-21T13:14:28;5.93;;;2.30;;
24739;SDS011;45234;48.148;17.128;2024-02-21T13:16:56;5.63;;;2.13;;
24739;SDS011;45234;48.148;17.128;2024-02-21T13:19:23;5.28;;;1.92;;
24739;SDS011;45234;48.148;17.128;2024-02-21T13:21:50;6.75;;;2.30;;
24739;SDS011;45234;48.148;17.128;2024-02-21T13:24:17;8.52;;;2.20;;
24739;SDS011;45234;48.148;17.128;2024-02-21T13:26:44;5.57;;;1.90;;
24739;SDS011;45234;48.148;17.128;2024-02-21T13:29:11;5.05;;;2.50;;
24739;SDS011;45234;48.148;17.128;2024-02-21T13:31:38;5.20;;;1.85;;
24739;SDS011;45234;48.148;17.128;2024-02-21T13:34:05;7.35;;;2.65;;
24739;SDS011;45234;48.148;17.128;2024-02-21T13:36:36;5.30;;;2.30;;
24739;SDS011;45234;48.148;17.128;2024-02-21T13:39:03;7.63;;;2.90;;
24739;SDS011;45234;48.148;17.128;2024-02-21T13:41:34;6.30;;;2.33;;
24739;SDS011;45234;48.148;17.128;2024-02-21T13:44:01;5.97;;;1.80;;
24739;SDS011;45234;48.148;17.128;2024-02-21T13:46:29;5.65;;;2.05;;
24739;SDS011;45234;48.148;17.128;2024-02-21T13:49:02;9.00;;;2.80;;
24739;SDS011;45234;48.148;17.128;2024-02-21T13:51:34;4.85;;;2.10;;
24739;SDS011;45234;48.148;17.128;2024-02-21T13:54:02;9.40;;;2.60;;
24739;SDS011;45234;48.148;17.128;2024-02-21T13:56:30;8.05;;;2.42;;
24739;SDS011;45234;48.148;17.128;2024-02-21T13:58:58;7.85;;;2.10;;
24739;SDS011;45234;48.148;17.128;2024-02-21T14:01:26;8.85;;;2.40;;
24739;SDS011;45234;48.148;17.128;2024-02-21T14:03:59;5.68;;;1.85;;
24739;SDS011;45234;48.148;17.128;2024-02-21T14:06:26;6.82;;;2.35;;
24739;SDS011;45234;48.148;17.128;2024-02-21T14:08:53;6.60;;;2.40;;
24739;SDS011;45234;48.148;17.128;2024-02-21T14:11:21;7.20;;;2.40;;
24739;SDS011;45234;48.148;17.128;2024-02-21T14:13:49;5.40;;;2.47;;
24739;SDS011;45234;48.148;17.128;2024-02-21T14:16:17;6.38;;;2.50;;
24739;SDS011;45234;48.148;17.128;2024-02-21T14:18:44;5.28;;;2.03;;
24739;SDS011;45234;48.148;17.128;2024-02-21T14:21:11;52.05;;;9.57;;
24739;SDS011;45234;48.148;17.128;2024-02-21T14:23:38;10.13;;;2.55;;
24739;SDS011;45234;48.148;17.128;2024-02-21T14:26:05;9.18;;;2.38;;
24739;SDS011;45234;48.148;17.128;2024-02-21T14:28:32;6.90;;;1.65;;
24739;SDS011;45234;48.148;17.128;2024-02-21T14:31:00;4.32;;;1.85;;
24739;SDS011;45234;48.148;17.128;2024-02-21T14:33:27;5.38;;;1.73;;
24739;SDS011;45234;48.148;17.128;2024-02-21T14:35:55;4.60;;;1.60;;
24739;SDS011;45234;48.148;17.128;2024-02-21T14:38:22;5.78;;;1.83;;
24739;SDS011;45234;48.148;17.128;2024-02-21T14:40:49;5.22;;;1.77;;
24739;SDS011;45234;48.148;17.128;2024-02-21T14:43:16;5.15;;;1.73;;